Terminal Aerodrome Forecast
Issued by NWS Amarillo, TX

Home | Current Version | Previous Version | Text Only | Print | Product List | Glossary On
Versions: 1 2 3 4 5 6 7 8 9 10 11 12 13 14
000
FTUS44 KAMA 231100
TAFGUY
TAF
KGUY 231133Z 2312/2412 32015G23KT P6SM SCT120 WS015/36050KT
     FM231400 35030G40KT P6SM BKN040
      TEMPO 2315/2319 5SM -RASN BLDU BKN015
     FM231900 35030G40KT P6SM BKN020
     FM232100 34024G34KT P6SM BKN100
     FM240000 30010KT P6SM BKN150=

USA.gov is the U.S. government's official web portal to all federal, state and local government web resources and services.